createdAt,value
2023-01-03T00:00:03.891Z,34.5
2023-01-03T00:02:05.548Z,33.5
2023-01-03T00:11:19.892Z,36.3
2023-01-03T00:13:21.600Z,33.6
2023-01-03T00:22:35.350Z,32.3
2023-01-03T00:24:39.706Z,33.6
2023-01-03T00:26:41.402Z,36
2023-01-03T00:28:43.129Z,34
2023-01-03T00:33:53.147Z,33.3
2023-01-03T00:35:54.811Z,34.6
2023-01-03T00:37:56.489Z,34.7
2023-01-03T00:40:00.854Z,34.8
2023-01-03T00:42:02.594Z,33.5
2023-01-03T00:44:04.302Z,37.1
2023-01-03T00:49:17.775Z,32
2023-01-03T00:51:19.484Z,33
2023-01-03T00:53:21.150Z,37.2
2023-01-03T00:55:25.512Z,36
2023-01-03T00:57:27.204Z,36
2023-01-03T00:59:28.861Z,35
2023-01-03T01:01:39.183Z,33.5
2023-01-03T01:03:35.056Z,34.7
2023-01-03T01:05:36.599Z,35.5
2023-01-03T01:07:40.969Z,37.8
2023-01-03T01:09:42.622Z,36.5
2023-01-03T01:13:54.797Z,36.2
2023-01-03T01:15:56.559Z,36
2023-01-03T01:17:58.177Z,37.4
2023-01-03T01:25:10.686Z,37.6
2023-01-03T01:27:12.340Z,38.8
2023-01-03T01:29:22.851Z,37.1
2023-01-03T01:31:24.721Z,39
2023-01-03T01:33:26.140Z,39.5
2023-01-03T01:40:39.818Z,40.8
2023-01-03T01:42:41.479Z,42
2023-01-03T01:44:45.833Z,41.1
2023-01-03T01:46:47.539Z,43
2023-01-03T01:48:49.197Z,41.8
2023-01-03T01:59:50.346Z,37.1
2023-01-03T02:01:51.997Z,38.4
2023-01-03T02:03:56.264Z,38.8
2023-01-03T02:05:57.946Z,38.1
2023-01-03T02:07:59.606Z,38.5
2023-01-03T02:10:03.986Z,34.1
2023-01-03T02:14:07.355Z,35.8
2023-01-03T02:16:11.774Z,35.6
2023-01-03T02:18:13.400Z,35.5
2023-01-03T02:20:15.103Z,36.2
2023-01-03T02:22:19.451Z,36.3
2023-01-03T02:24:21.154Z,36.8
2023-01-03T02:26:22.814Z,33.6
2023-01-03T02:35:22.112Z,29.7
2023-01-03T02:37:23.772Z,30.7
2023-01-03T02:41:29.776Z,33.3
2023-01-03T02:43:31.436Z,34.3
2023-01-03T02:45:33.093Z,32
2023-01-03T02:49:39.143Z,34.6
2023-01-03T02:51:40.723Z,34.6
2023-01-03T02:53:45.068Z,32.5
2023-01-03T02:55:46.713Z,34
2023-01-03T02:57:48.375Z,32.8
2023-01-03T02:59:52.825Z,31.8
2023-01-03T03:01:54.479Z,33
2023-01-03T03:03:56.042Z,34.2
2023-01-03T03:06:00.298Z,34.5
2023-01-03T03:10:03.608Z,33.2
2023-01-03T03:12:07.900Z,33.1
2023-01-03T03:14:09.533Z,35.3
2023-01-03T03:16:11.271Z,34.9
2023-01-03T03:18:15.456Z,33.2
2023-01-03T03:20:17.131Z,36.1
2023-01-03T03:22:18.715Z,34.4
2023-01-03T03:27:21.565Z,29.9
2023-01-03T03:29:23.159Z,32.7
2023-01-03T03:31:24.870Z,33.4
2023-01-03T03:33:29.092Z,32.8
2023-01-03T03:35:30.770Z,33.1
2023-01-03T03:37:32.353Z,36.5
2023-01-03T03:39:36.639Z,34.5
2023-01-03T03:43:39.889Z,38
2023-01-03T03:45:44.213Z,43.4
2023-01-03T03:47:45.852Z,46.7
2023-01-03T03:49:47.453Z,43.9
2023-01-03T03:51:51.759Z,50.9
2023-01-03T03:53:53.397Z,52.7
2023-01-03T03:55:55.118Z,46.7
2023-01-03T03:57:59.369Z,55
2023-01-03T04:00:02.681Z,68.7
2023-01-03T04:02:04.400Z,60.5
2023-01-03T04:06:10.263Z,57.8
2023-01-03T04:08:11.908Z,63.8
2023-01-03T04:10:16.239Z,65.4
2023-01-03T04:14:19.550Z,59.5
2023-01-03T04:16:23.971Z,54.5
2023-01-03T04:25:31.618Z,48.5
2023-01-03T04:27:33.326Z,48
2023-01-03T04:29:39.189Z,52.5
2023-01-03T04:31:39.419Z,51.5
2023-01-03T04:33:41.017Z,49.5
2023-01-03T04:35:42.704Z,55.1
2023-01-03T04:37:47.081Z,57.8
2023-01-03T04:41:50.443Z,46.8
2023-01-03T04:43:54.842Z,49.3
2023-01-03T04:45:56.579Z,47.3
2023-01-03T04:47:58.276Z,52.1
2023-01-03T04:50:02.606Z,48.8
2023-01-03T04:52:04.334Z,50.5
2023-01-03T04:54:06.046Z,52.1
2023-01-03T04:59:12.916Z,47.5
2023-01-03T05:01:14.782Z,46.9
2023-01-03T05:03:16.992Z,50.4
2023-01-03T05:05:20.767Z,50.5
2023-01-03T05:07:22.424Z,46.7
2023-01-03T05:09:24.117Z,47.3
2023-01-03T05:11:28.525Z,49.4
2023-01-03T05:13:30.250Z,49.2
2023-01-03T05:15:31.977Z,47.6
2023-01-03T05:17:36.507Z,43.2
2023-01-03T05:19:43.728Z,48.7
2023-01-03T05:21:39.815Z,50
2023-01-03T05:23:44.201Z,50.5
2023-01-03T05:25:45.915Z,49.7
2023-01-03T05:27:47.717Z,51.2
2023-01-03T05:29:52.041Z,52.8
2023-01-03T05:31:53.946Z,55.7
2023-01-03T05:33:55.516Z,52.8
2023-01-03T05:35:59.913Z,64
2023-01-03T05:38:01.661Z,60.9
2023-01-03T05:40:03.366Z,57.7
2023-01-03T05:42:07.781Z,64
2023-01-03T05:44:09.521Z,62
2023-01-03T05:46:11.296Z,64.5
2023-01-03T05:48:15.658Z,60.6
2023-01-03T05:50:17.389Z,61.5
2023-01-03T05:52:19.119Z,60.2
2023-01-03T05:56:25.247Z,65.5
2023-01-03T05:58:26.999Z,61.1
2023-01-03T06:00:31.394Z,61.9
2023-01-03T06:02:33.167Z,67.7
2023-01-03T06:04:34.970Z,61.2
2023-01-03T06:06:39.297Z,64.3
2023-01-03T06:08:40.986Z,66.7
2023-01-03T06:10:42.723Z,69.5
2023-01-03T06:12:47.148Z,68.6
2023-01-03T06:14:48.878Z,69.5
2023-01-03T06:16:50.668Z,72.9
2023-01-03T06:18:55.045Z,68.4
2023-01-03T06:20:56.775Z,65.6
2023-01-03T06:22:58.505Z,70
2023-01-03T06:25:02.891Z,64.2
2023-01-03T06:38:05.852Z,53.6
2023-01-03T06:40:07.612Z,60.4
2023-01-03T06:42:09.284Z,54.8
2023-01-03T06:44:13.667Z,61.4
2023-01-03T06:46:15.431Z,59.3
2023-01-03T06:48:17.085Z,57.2
2023-01-03T06:59:38.112Z,55.2
2023-01-03T07:01:39.924Z,57.1
2023-01-03T07:03:41.498Z,57.1
2023-01-03T07:05:45.828Z,58.1
2023-01-03T07:07:47.487Z,56
2023-01-03T07:09:49.180Z,57.9
2023-01-03T07:11:53.524Z,56.6
2023-01-03T07:13:55.200Z,60
2023-01-03T07:18:01.251Z,57
2023-01-03T07:20:02.942Z,60.7
2023-01-03T07:22:04.592Z,61
2023-01-03T07:28:12.347Z,57.4
2023-01-03T07:36:24.356Z,54.3
2023-01-03T07:38:26.003Z,57.8
2023-01-03T07:40:27.674Z,60.2
2023-01-03T07:42:31.996Z,56.1
2023-01-03T07:44:33.682Z,57.6
2023-01-03T07:46:35.433Z,57.2
2023-01-03T07:48:39.949Z,59.5
2023-01-03T07:50:41.350Z,59.4
2023-01-03T07:52:43.011Z,62.5
2023-01-03T07:54:47.388Z,59.8
2023-01-03T07:56:49.084Z,63.5
2023-01-03T07:58:50.743Z,61.5
2023-01-03T08:00:55.103Z,66
2023-01-03T08:02:56.894Z,60.2
2023-01-03T08:04:58.534Z,66.3
2023-01-03T08:07:02.844Z,62.2
2023-01-03T08:09:06.380Z,66.4
2023-01-03T08:11:06.177Z,57.3
2023-01-03T08:13:10.565Z,62.3
2023-01-03T08:15:12.239Z,60.1
2023-01-03T08:17:13.938Z,58.9
2023-01-03T08:19:18.299Z,68.1
2023-01-03T08:21:20.048Z,57.5
2023-01-03T08:23:21.811Z,57.5
2023-01-03T08:25:26.068Z,54.5
2023-01-03T08:27:27.770Z,54.7
2023-01-03T08:31:33.857Z,53.1
2023-01-03T08:33:35.521Z,53.6
2023-01-03T08:35:37.205Z,54.4
2023-01-03T08:39:43.265Z,56.5
2023-01-03T08:41:44.990Z,52.4
2023-01-03T08:47:52.733Z,54.3
2023-01-03T08:51:58.830Z,57.5
2023-01-03T08:54:00.538Z,55.3
2023-01-03T08:56:04.904Z,53.9
2023-01-03T09:00:08.312Z,59.5
2023-01-03T09:02:12.881Z,60.9
2023-01-03T09:06:16.136Z,58.2
2023-01-03T09:10:22.190Z,52.5
2023-01-03T09:12:23.911Z,51.3
2023-01-03T09:18:31.718Z,54.2
2023-01-03T09:20:36.115Z,55.4
2023-01-03T09:22:37.822Z,51.9
2023-01-03T09:24:39.519Z,50.6
2023-01-03T09:26:45.991Z,55.6
2023-01-03T09:28:45.631Z,51.2
2023-01-03T09:30:47.361Z,51.9
2023-01-03T09:32:51.727Z,50.4
2023-01-03T09:34:53.449Z,47.7
2023-01-03T09:36:55.169Z,50.3
2023-01-03T09:48:46.650Z,39
2023-01-03T09:51:17.063Z,43.3
2023-01-03T09:52:50.072Z,36.6
2023-01-03T09:54:54.475Z,38.5
2023-01-03T09:56:56.205Z,41.2
2023-01-03T09:58:57.927Z,42.9
2023-01-03T10:01:02.363Z,40.7
2023-01-03T10:03:04.218Z,39.6
2023-01-03T10:05:05.820Z,37.6
2023-01-03T10:07:10.215Z,36.6
2023-01-03T10:09:11.976Z,38.3
2023-01-03T10:11:13.716Z,37.3
2023-01-03T10:13:20.266Z,36.2
2023-01-03T10:15:19.869Z,36.3
2023-01-03T10:19:26.032Z,35.8
2023-01-03T10:25:33.947Z,39.1
2023-01-03T10:27:35.717Z,35.2
2023-01-03T10:29:37.476Z,38.3
2023-01-03T10:31:41.977Z,38.8
2023-01-03T10:33:43.667Z,40
2023-01-03T10:35:45.430Z,37
2023-01-03T10:40:59.149Z,37.4
2023-01-03T10:43:00.916Z,36.9
2023-01-03T10:47:07.125Z,34.3
2023-01-03T10:49:28.849Z,37.1
2023-01-03T10:51:10.615Z,36
2023-01-03T10:53:15.065Z,33.6
2023-01-03T10:55:16.850Z,32.3
2023-01-03T10:57:18.600Z,36.5
2023-01-03T10:59:23.057Z,32.9
2023-01-03T11:01:25.000Z,32.4
2023-01-03T11:03:26.662Z,33.3
2023-01-03T11:05:31.036Z,32.8
2023-01-03T11:07:32.822Z,33.7
2023-01-03T11:09:34.583Z,32.8
2023-01-03T11:28:03.083Z,25.7
2023-01-03T11:30:07.573Z,30.6
2023-01-03T11:40:19.197Z,21.7
2023-01-03T11:42:23.667Z,28.1
2023-01-03T11:44:25.429Z,30
2023-01-03T11:46:27.264Z,25.7
2023-01-03T11:48:31.703Z,27.5
2023-01-03T11:50:33.498Z,26.5
2023-01-03T11:52:35.270Z,26.6
2023-01-03T11:54:52.842Z,23.8
2023-01-03T11:56:47.676Z,28.1
2023-01-03T11:58:49.451Z,24
2023-01-03T12:00:53.898Z,26.8
2023-01-03T12:02:55.743Z,23.9
2023-01-03T12:04:57.510Z,24.8
2023-01-03T12:07:36.799Z,21.2
2023-01-03T12:09:03.750Z,22.4
2023-01-03T12:11:05.515Z,23.5
2023-01-03T12:13:09.981Z,25.1
2023-01-03T12:15:11.759Z,23.3
2023-01-03T12:17:13.556Z,25.8
2023-01-03T12:19:18.026Z,23
2023-01-03T12:21:19.818Z,21.5
2023-01-03T12:23:21.602Z,22.4
2023-01-03T12:25:26.076Z,19.9
2023-01-03T12:27:27.866Z,22.5
2023-01-03T12:29:29.700Z,21.2
2023-01-03T12:31:34.231Z,19.5
2023-01-03T12:33:35.970Z,21.2
2023-01-03T12:39:43.988Z,19.9
2023-01-03T12:41:45.772Z,20.1
2023-01-03T12:43:52.296Z,20.8
2023-01-03T12:45:52.070Z,22.3
2023-01-03T12:47:53.867Z,20.9
2023-01-03T12:49:58.320Z,21.9
2023-01-03T12:54:01.793Z,20.1
2023-01-03T12:56:06.230Z,22.5
2023-01-03T12:58:08.008Z,20.2
2023-01-03T13:00:09.882Z,22.6
2023-01-03T13:02:14.536Z,20.2
2023-01-03T13:04:22.629Z,21.2
2023-01-03T13:06:17.842Z,22.2
2023-01-03T13:08:22.311Z,22
2023-01-03T13:10:24.107Z,22.4
2023-01-03T13:12:25.907Z,19.9
2023-01-03T13:14:30.394Z,20.7
2023-01-03T13:16:32.265Z,25.1
2023-01-03T13:20:38.482Z,21.7
2023-01-03T13:22:40.271Z,20.5
2023-01-03T13:24:42.077Z,20
2023-01-03T13:28:48.330Z,18.4
2023-01-03T13:30:50.180Z,17.7
2023-01-03T13:34:56.418Z,18.2
2023-01-03T13:36:58.123Z,18.7
2023-01-03T13:43:12.236Z,18.8
2023-01-03T13:47:18.296Z,15.3
2023-01-03T14:01:06.091Z,14.8
2023-01-03T14:03:04.265Z,16.9
2023-01-03T14:05:05.853Z,15.9
2023-01-03T14:07:10.312Z,16.2
2023-01-03T14:13:18.479Z,17.3
2023-01-03T14:15:25.925Z,16.5
2023-01-03T14:17:22.059Z,15.5
2023-01-03T14:21:28.247Z,14.3
2023-01-03T14:23:59.063Z,16.2
2023-01-03T14:29:37.772Z,12.1
2023-01-03T14:34:44.186Z,13.7
2023-01-03T14:36:45.949Z,13
2023-01-03T14:38:47.619Z,13
2023-01-03T14:40:51.990Z,15.5
2023-01-03T14:42:53.697Z,13.7
2023-01-03T14:44:55.490Z,13.1
2023-01-03T14:49:03.693Z,12.6
2023-01-03T14:51:03.323Z,11.2
2023-01-03T14:53:07.700Z,10.4
2023-01-03T14:55:09.393Z,12.1
2023-01-03T14:59:15.664Z,9.2
2023-01-03T15:01:17.528Z,10.3
2023-01-03T15:05:23.453Z,9
2023-01-03T15:07:25.275Z,8.4
2023-01-03T15:09:27.100Z,8.2
2023-01-03T15:11:31.529Z,8.9
2023-01-03T15:15:35.128Z,7.8
2023-01-03T15:17:39.613Z,8.2
2023-01-03T15:23:47.673Z,9.5
2023-01-03T15:25:49.496Z,8.1
2023-01-03T15:29:55.716Z,7.1
2023-01-03T15:31:57.627Z,7
2023-01-03T15:33:59.321Z,5.8
2023-01-03T15:36:03.807Z,6.5
2023-01-03T15:38:05.604Z,5.9
2023-01-03T15:40:07.360Z,5.9
2023-01-03T15:42:42.843Z,5.8
2023-01-03T15:46:15.583Z,6.3
2023-01-03T15:48:19.890Z,5.8
2023-01-03T15:50:21.662Z,6.8
2023-01-03T15:52:23.464Z,5.4
2023-01-03T15:54:27.922Z,6.4
2023-01-03T15:56:29.704Z,5.8
2023-01-03T15:58:31.475Z,5.4
2023-01-03T16:00:35.928Z,7.2
2023-01-03T16:04:39.511Z,5.1
2023-01-03T16:08:45.723Z,6.2
2023-01-03T16:10:47.515Z,6.1
2023-01-03T16:16:01.180Z,5.8
2023-01-03T16:18:02.952Z,5.9
2023-01-03T16:20:04.731Z,5.3
2023-01-03T16:29:04.471Z,4.8
2023-01-03T16:31:06.235Z,6
2023-01-03T16:33:07.984Z,6.4
2023-01-03T16:35:12.433Z,6.7
2023-01-03T16:37:14.200Z,4.7
2023-01-03T16:39:15.945Z,6.1
2023-01-03T16:41:20.381Z,5.5
2023-01-03T16:43:22.251Z,5.1
2023-01-03T16:45:23.933Z,5
2023-01-03T16:47:28.375Z,4.5
2023-01-03T16:49:30.139Z,4.3
2023-01-03T16:51:31.947Z,4.9
2023-01-03T16:56:35.450Z,3.9
2023-01-03T17:04:45.175Z,4.4
2023-01-03T17:06:46.919Z,5.4
2023-01-03T17:08:51.366Z,5.3
2023-01-03T17:14:59.423Z,4.5
2023-01-03T17:21:07.353Z,5.5
2023-01-03T17:34:10.677Z,3.1
2023-01-03T17:40:18.651Z,5.8
2023-01-03T17:44:22.222Z,5
2023-01-03T17:51:35.203Z,5.1
2023-01-03T17:53:36.987Z,4.5
2023-01-03T17:55:41.404Z,4.1
2023-01-03T17:57:43.202Z,4.4
2023-01-03T18:08:55.660Z,3.1
2023-01-03T18:11:00.108Z,3.9
2023-01-03T18:13:01.910Z,4
2023-01-03T18:15:03.677Z,3.1
2023-01-03T18:17:08.168Z,4.2
2023-01-03T18:19:09.949Z,3.6
2023-01-03T18:21:11.728Z,4.2
2023-01-03T18:23:16.191Z,3.9
2023-01-03T18:25:22.069Z,3.2
2023-01-03T18:27:19.782Z,3.3
2023-01-03T18:29:24.234Z,3.3
2023-01-03T18:31:26.058Z,2.7
2023-01-03T18:33:27.787Z,3
2023-01-03T18:35:37.477Z,3.6
2023-01-03T18:37:34.097Z,3.3
2023-01-03T18:41:40.556Z,3.3
2023-01-03T18:45:43.943Z,2.4
2023-01-03T18:58:47.418Z,2.4
2023-01-03T19:00:51.861Z,2.6
2023-01-03T19:06:59.949Z,3.4
2023-01-03T19:09:01.609Z,1.5
2023-01-03T19:11:03.339Z,3.1
2023-01-03T19:13:07.676Z,2.4
2023-01-03T19:15:09.383Z,2.8
2023-01-03T19:17:11.177Z,2.1
2023-01-03T19:19:16.373Z,2.2
2023-01-03T19:21:25.039Z,6.2
2023-01-03T19:23:19.272Z,2.1
2023-01-03T19:25:23.774Z,2.1
2023-01-03T19:27:26.842Z,2.1
2023-01-03T19:29:27.326Z,2.4
2023-01-03T19:38:27.258Z,2.8
2023-01-03T19:40:29.043Z,1.8
2023-01-03T19:42:30.864Z,1.8
2023-01-03T19:47:38.500Z,1.8
2023-01-03T19:49:40.273Z,1.8
2023-01-03T19:53:46.614Z,2
2023-01-03T19:55:48.364Z,2.4
2023-01-03T19:57:50.107Z,2
2023-01-03T19:59:54.463Z,2
2023-01-03T20:08:11.102Z,1.6
2023-01-03T20:16:14.279Z,2
2023-01-03T20:18:18.662Z,2.4
2023-01-03T20:20:20.500Z,2
2023-01-03T20:23:02.427Z,1.5
2023-01-03T20:24:26.766Z,1.3
2023-01-03T20:28:30.362Z,2.5
2023-01-03T20:30:34.853Z,1.4
2023-01-03T20:34:38.679Z,1.4
2023-01-03T20:41:51.548Z,1.7
2023-01-03T20:43:53.352Z,1.5
2023-01-03T20:45:57.799Z,1.9
2023-01-03T20:54:07.733Z,2.1
2023-01-03T20:56:09.550Z,1.4
2023-01-03T21:06:23.935Z,1.7
2023-01-03T21:08:25.754Z,1.9
2023-01-03T21:10:30.216Z,1.6
2023-01-03T21:12:37.057Z,1.5
2023-01-03T21:14:33.818Z,1.3
2023-01-03T21:16:38.410Z,1.7
2023-01-03T21:18:40.127Z,7.7
2023-01-03T21:20:41.944Z,4.6
2023-01-03T21:22:52.524Z,1.9
2023-01-03T21:24:57.744Z,3.1
2023-01-03T21:26:56.053Z,2.1
2023-01-03T21:29:00.555Z,1
2023-01-03T21:31:05.368Z,1.5
2023-01-03T21:33:04.102Z,2.5
2023-01-03T21:35:10.281Z,2.8
2023-01-03T21:37:23.343Z,1.5
2023-01-03T21:53:32.904Z,1.9
2023-01-03T21:59:41.020Z,2
2023-01-03T22:12:44.558Z,3.2
2023-01-03T22:14:46.360Z,3.1
2023-01-03T22:18:52.622Z,1.3
2023-01-03T22:20:54.333Z,4.2
2023-01-03T22:22:56.033Z,3.8
2023-01-03T22:25:00.551Z,2.3
2023-01-03T22:27:02.373Z,2.2
2023-01-03T22:29:04.190Z,1.3
2023-01-03T22:31:08.629Z,1.7
2023-01-03T22:33:10.419Z,1.5
2023-01-03T22:35:12.262Z,3.8
2023-01-03T22:37:16.721Z,1.2
2023-01-03T22:43:24.799Z,1.7
2023-01-03T22:45:27.440Z,3.5
2023-01-03T22:47:28.440Z,2.3
2023-01-03T22:53:42.100Z,2.2
2023-01-03T22:55:43.887Z,1.8
2023-01-03T22:57:45.689Z,2.7
2023-01-03T23:01:52.162Z,1.6
2023-01-03T23:03:53.895Z,1.7
2023-01-03T23:05:58.307Z,1.4
2023-01-03T23:08:00.153Z,1.8
2023-01-03T23:10:02.012Z,0.9
2023-01-03T23:12:06.418Z,1
2023-01-03T23:16:10.053Z,1.1
2023-01-03T23:20:16.252Z,1.7
2023-01-03T23:22:18.051Z,1.2
2023-01-03T23:24:22.449Z,1.3
2023-01-03T23:26:24.193Z,2.3
2023-01-03T23:28:25.876Z,2.7
2023-01-03T23:30:30.418Z,1
2023-01-03T23:32:32.174Z,1.1
2023-01-03T23:34:34.009Z,1.2
2023-01-03T23:36:38.479Z,1.4
2023-01-03T23:38:40.178Z,1.6
2023-01-03T23:40:41.986Z,1.5
2023-01-03T23:42:46.472Z,1.6
2023-01-03T23:48:54.265Z,1.2
2023-01-03T23:50:55.973Z,1.3
2023-01-03T23:52:57.689Z,1.5
2023-01-03T23:55:08.469Z,1.2
2023-01-03T23:57:03.808Z,0.9
2023-01-03T23:59:05.600Z,2
